sensor_id;sensor_type;location;lat;lon;timestamp;pressure;altitude;pressure_sealevel;temperature;humidity
73860;BME280;62197;51.632;13.700;2023-12-29T00:02:19;100001.59;;;6.81;76.34
73860;BME280;62197;51.632;13.700;2023-12-29T00:04:45;99996.97;;;6.84;76.12
73860;BME280;62197;51.632;13.700;2023-12-29T00:07:10;100004.31;;;6.79;75.89
73860;BME280;62197;51.632;13.700;2023-12-29T00:09:35;99999.22;;;6.67;76.80
73860;BME280;62197;51.632;13.700;2023-12-29T00:12:06;99989.84;;;6.64;76.86
73860;BME280;62197;51.632;13.700;2023-12-29T00:14:31;99989.72;;;6.66;76.83
73860;BME280;62197;51.632;13.700;2023-12-29T00:16:57;99987.56;;;6.59;76.71
73860;BME280;62197;51.632;13.700;2023-12-29T00:19:23;99983.28;;;6.58;76.98
73860;BME280;62197;51.632;13.700;2023-12-29T00:21:48;99981.25;;;6.51;77.29
73860;BME280;62197;51.632;13.700;2023-12-29T00:24:13;99985.31;;;6.55;76.92
73860;BME280;62197;51.632;13.700;2023-12-29T00:26:39;99975.19;;;6.50;77.30
73860;BME280;62197;51.632;13.700;2023-12-29T00:29:04;99973.50;;;6.38;77.44
73860;BME280;62197;51.632;13.700;2023-12-29T00:31:31;99969.44;;;6.34;77.71
73860;BME280;62197;51.632;13.700;2023-12-29T00:33:57;99977.13;;;6.24;77.89
73860;BME280;62197;51.632;13.700;2023-12-29T00:36:22;99961.94;;;6.18;78.40
73860;BME280;62197;51.632;13.700;2023-12-29T00:38:47;99974.06;;;6.19;78.44
73860;BME280;62197;51.632;13.700;2023-12-29T00:41:13;99978.91;;;6.13;78.70
73860;BME280;62197;51.632;13.700;2023-12-29T00:43:38;99981.75;;;6.10;78.94
73860;BME280;62197;51.632;13.700;2023-12-29T00:46:07;99973.22;;;6.19;78.44
73860;BME280;62197;51.632;13.700;2023-12-29T00:48:33;99977.00;;;6.15;78.40
73860;BME280;62197;51.632;13.700;2023-12-29T00:51:01;99970.94;;;6.14;78.44
73860;BME280;62197;51.632;13.700;2023-12-29T00:53:26;99974.84;;;6.09;78.53
73860;BME280;62197;51.632;13.700;2023-12-29T00:55:52;99968.91;;;6.07;78.57
73860;BME280;62197;51.632;13.700;2023-12-29T00:58:17;99958.47;;;6.07;78.77
73860;BME280;62197;51.632;13.700;2023-12-29T01:00:42;99962.25;;;6.03;78.70
73860;BME280;62197;51.632;13.700;2023-12-29T01:03:08;99971.03;;;6.02;79.04
73860;BME280;62197;51.632;13.700;2023-12-29T01:05:33;99965.31;;;5.96;78.92
73860;BME280;62197;51.632;13.700;2023-12-29T01:07:59;99968.13;;;5.93;79.05
73860;BME280;62197;51.632;13.700;2023-12-29T01:10:24;99966.16;;;5.84;79.26
73860;BME280;62197;51.632;13.700;2023-12-29T01:12:49;99965.94;;;5.87;79.22
73860;BME280;62197;51.632;13.700;2023-12-29T01:15:15;99954.16;;;5.82;79.46
73860;BME280;62197;51.632;13.700;2023-12-29T01:17:40;99957.09;;;5.77;79.61
73860;BME280;62197;51.632;13.700;2023-12-29T01:20:06;99955.94;;;5.81;79.68
73860;BME280;62197;51.632;13.700;2023-12-29T01:22:31;99950.00;;;5.79;79.79
73860;BME280;62197;51.632;13.700;2023-12-29T01:24:58;99941.66;;;5.74;79.67
73860;BME280;62197;51.632;13.700;2023-12-29T01:27:25;99941.78;;;5.73;79.79
73860;BME280;62197;51.632;13.700;2023-12-29T01:29:50;99954.00;;;5.72;80.23
73860;BME280;62197;51.632;13.700;2023-12-29T01:32:15;99952.59;;;5.68;79.99
73860;BME280;62197;51.632;13.700;2023-12-29T01:34:40;99954.47;;;5.66;80.36
73860;BME280;62197;51.632;13.700;2023-12-29T01:37:06;99946.97;;;5.61;80.26
73860;BME280;62197;51.632;13.700;2023-12-29T01:39:33;99949.91;;;5.57;80.46
73860;BME280;62197;51.632;13.700;2023-12-29T01:41:58;99934.69;;;5.51;80.83
73860;BME280;62197;51.632;13.700;2023-12-29T01:44:24;99935.09;;;5.57;80.48
73860;BME280;62197;51.632;13.700;2023-12-29T01:46:51;99923.44;;;5.50;80.66
73860;BME280;62197;51.632;13.700;2023-12-29T01:49:19;99912.50;;;5.45;81.15
73860;BME280;62197;51.632;13.700;2023-12-29T01:51:51;99908.44;;;5.41;81.03
73860;BME280;62197;51.632;13.700;2023-12-29T01:54:18;99898.13;;;5.40;81.48
73860;BME280;62197;51.632;13.700;2023-12-29T01:56:45;99893.34;;;5.33;81.73
73860;BME280;62197;51.632;13.700;2023-12-29T01:59:11;99894.13;;;5.47;81.25
73860;BME280;62197;51.632;13.700;2023-12-29T02:01:37;99896.72;;;5.47;81.43
73860;BME280;62197;51.632;13.700;2023-12-29T02:04:05;99886.84;;;5.63;80.62
73860;BME280;62197;51.632;13.700;2023-12-29T02:06:31;99883.53;;;5.61;80.28
73860;BME280;62197;51.632;13.700;2023-12-29T02:08:58;99886.41;;;5.69;80.39
73860;BME280;62197;51.632;13.700;2023-12-29T02:11:24;99884.50;;;5.71;80.40
73860;BME280;62197;51.632;13.700;2023-12-29T02:13:50;99880.47;;;5.78;80.24
73860;BME280;62197;51.632;13.700;2023-12-29T02:16:38;99872.19;;;5.84;79.65
73860;BME280;62197;51.632;13.700;2023-12-29T02:19:08;99874.59;;;5.87;79.62
73860;BME280;62197;51.632;13.700;2023-12-29T02:21:38;99873.59;;;6.01;79.01
73860;BME280;62197;51.632;13.700;2023-12-29T02:24:04;99884.53;;;6.06;78.80
73860;BME280;62197;51.632;13.700;2023-12-29T02:26:31;99877.03;;;6.02;78.92
73860;BME280;62197;51.632;13.700;2023-12-29T02:29:02;99881.31;;;6.03;78.70
73860;BME280;62197;51.632;13.700;2023-12-29T02:31:30;99879.44;;;6.16;78.15
73860;BME280;62197;51.632;13.700;2023-12-29T02:33:57;99873.28;;;6.17;77.97
73860;BME280;62197;51.632;13.700;2023-12-29T02:36:24;99871.38;;;6.19;77.86
73860;BME280;62197;51.632;13.700;2023-12-29T02:38:50;99873.66;;;6.23;77.47
73860;BME280;62197;51.632;13.700;2023-12-29T02:41:15;99868.78;;;6.19;77.81
73860;BME280;62197;51.632;13.700;2023-12-29T02:43:41;99874.94;;;6.40;76.98
73860;BME280;62197;51.632;13.700;2023-12-29T02:46:06;99865.69;;;6.36;76.60
73860;BME280;62197;51.632;13.700;2023-12-29T02:48:32;99856.28;;;6.34;76.87
73860;BME280;62197;51.632;13.700;2023-12-29T02:50:57;99856.19;;;6.35;76.83
73860;BME280;62197;51.632;13.700;2023-12-29T02:53:22;99854.75;;;6.42;76.71
73860;BME280;62197;51.632;13.700;2023-12-29T02:55:47;99854.06;;;6.40;76.73
73860;BME280;62197;51.632;13.700;2023-12-29T02:58:13;99856.44;;;6.43;76.38
73860;BME280;62197;51.632;13.700;2023-12-29T03:00:38;99853.59;;;6.46;76.17
73860;BME280;62197;51.632;13.700;2023-12-29T03:03:04;99859.75;;;6.56;75.82
73860;BME280;62197;51.632;13.700;2023-12-29T03:05:29;99841.72;;;6.53;76.14
73860;BME280;62197;51.632;13.700;2023-12-29T03:07:54;99840.41;;;6.59;75.74
73860;BME280;62197;51.632;13.700;2023-12-29T03:10:20;99830.78;;;6.59;76.02
73860;BME280;62197;51.632;13.700;2023-12-29T03:12:45;99832.91;;;6.54;76.08
73860;BME280;62197;51.632;13.700;2023-12-29T03:15:10;99832.22;;;6.52;76.14
73860;BME280;62197;51.632;13.700;2023-12-29T03:17:35;99815.81;;;6.61;75.98
73860;BME280;62197;51.632;13.700;2023-12-29T03:20:02;99819.84;;;6.66;75.49
73860;BME280;62197;51.632;13.700;2023-12-29T03:22:28;99819.25;;;6.73;75.58
73860;BME280;62197;51.632;13.700;2023-12-29T03:24:53;99818.97;;;6.87;74.78
73860;BME280;62197;51.632;13.700;2023-12-29T03:27:19;99810.59;;;6.73;75.28
73860;BME280;62197;51.632;13.700;2023-12-29T03:29:44;99821.22;;;6.92;74.32
73860;BME280;62197;51.632;13.700;2023-12-29T03:32:09;99801.84;;;6.94;74.45
73860;BME280;62197;51.632;13.700;2023-12-29T03:34:34;99803.50;;;6.95;74.45
73860;BME280;62197;51.632;13.700;2023-12-29T03:37:00;99810.28;;;6.87;74.63
73860;BME280;62197;51.632;13.700;2023-12-29T03:39:25;99790.44;;;6.84;74.60
73860;BME280;62197;51.632;13.700;2023-12-29T03:41:50;99793.19;;;6.83;74.69
73860;BME280;62197;51.632;13.700;2023-12-29T03:44:16;99799.84;;;6.87;74.85
73860;BME280;62197;51.632;13.700;2023-12-29T03:46:43;99780.72;;;6.86;74.79
73860;BME280;62197;51.632;13.700;2023-12-29T03:49:08;99779.22;;;6.73;75.48
73860;BME280;62197;51.632;13.700;2023-12-29T03:51:34;99790.22;;;6.76;75.33
73860;BME280;62197;51.632;13.700;2023-12-29T03:54:00;99782.25;;;6.78;75.18
73860;BME280;62197;51.632;13.700;2023-12-29T03:56:26;99777.56;;;6.72;75.37
73860;BME280;62197;51.632;13.700;2023-12-29T03:58:51;99772.31;;;6.72;75.55
73860;BME280;62197;51.632;13.700;2023-12-29T04:01:17;99779.09;;;6.74;75.40
73860;BME280;62197;51.632;13.700;2023-12-29T04:03:43;99784.69;;;6.70;75.20
73860;BME280;62197;51.632;13.700;2023-12-29T04:06:09;99776.00;;;6.69;75.46
73860;BME280;62197;51.632;13.700;2023-12-29T04:08:35;99772.56;;;6.69;75.17
73860;BME280;62197;51.632;13.700;2023-12-29T04:11:01;99776.50;;;6.63;75.62
73860;BME280;62197;51.632;13.700;2023-12-29T04:13:26;99779.69;;;6.67;75.50
73860;BME280;62197;51.632;13.700;2023-12-29T04:15:52;99780.78;;;6.64;75.64
73860;BME280;62197;51.632;13.700;2023-12-29T04:18:18;99775.53;;;6.64;75.43
73860;BME280;62197;51.632;13.700;2023-12-29T04:20:43;99783.03;;;6.57;76.04
73860;BME280;62197;51.632;13.700;2023-12-29T04:23:08;99779.59;;;6.57;76.23
73860;BME280;62197;51.632;13.700;2023-12-29T04:25:34;99774.38;;;6.57;75.70
73860;BME280;62197;51.632;13.700;2023-12-29T04:27:59;99768.28;;;6.68;74.91
73860;BME280;62197;51.632;13.700;2023-12-29T04:30:25;99757.97;;;6.66;75.33
73860;BME280;62197;51.632;13.700;2023-12-29T04:32:50;99764.50;;;6.72;74.94
73860;BME280;62197;51.632;13.700;2023-12-29T04:35:16;99769.00;;;6.70;75.28
73860;BME280;62197;51.632;13.700;2023-12-29T04:37:43;99786.22;;;6.72;75.12
73860;BME280;62197;51.632;13.700;2023-12-29T04:40:09;99788.84;;;6.72;75.07
73860;BME280;62197;51.632;13.700;2023-12-29T04:42:35;99789.56;;;6.63;75.53
73860;BME280;62197;51.632;13.700;2023-12-29T04:45:00;99782.44;;;6.65;75.42
73860;BME280;62197;51.632;13.700;2023-12-29T04:47:25;99780.72;;;6.86;74.52
73860;BME280;62197;51.632;13.700;2023-12-29T04:49:51;99769.78;;;6.81;74.47
73860;BME280;62197;51.632;13.700;2023-12-29T04:52:16;99772.75;;;6.77;74.88
73860;BME280;62197;51.632;13.700;2023-12-29T04:54:41;99785.00;;;6.76;74.85
73860;BME280;62197;51.632;13.700;2023-12-29T04:57:07;99773.09;;;6.83;74.46
73860;BME280;62197;51.632;13.700;2023-12-29T04:59:32;99785.94;;;6.86;74.60
73860;BME280;62197;51.632;13.700;2023-12-29T05:01:57;99784.75;;;6.79;74.59
73860;BME280;62197;51.632;13.700;2023-12-29T05:04:22;99778.69;;;6.79;74.75
73860;BME280;62197;51.632;13.700;2023-12-29T05:06:48;99778.97;;;6.76;74.96
73860;BME280;62197;51.632;13.700;2023-12-29T05:09:13;99778.50;;;6.71;75.09
73860;BME280;62197;51.632;13.700;2023-12-29T05:11:39;99778.00;;;6.77;74.87
73860;BME280;62197;51.632;13.700;2023-12-29T05:14:04;99783.09;;;6.78;74.75
73860;BME280;62197;51.632;13.700;2023-12-29T05:16:29;99786.53;;;6.90;74.01
73860;BME280;62197;51.632;13.700;2023-12-29T05:18:55;99775.13;;;6.80;74.90
73860;BME280;62197;51.632;13.700;2023-12-29T05:21:20;99790.09;;;6.89;74.31
73860;BME280;62197;51.632;13.700;2023-12-29T05:23:46;99791.84;;;7.00;73.57
73860;BME280;62197;51.632;13.700;2023-12-29T05:26:13;99783.66;;;6.93;73.99
73860;BME280;62197;51.632;13.700;2023-12-29T05:28:39;99790.69;;;6.92;73.82
73860;BME280;62197;51.632;13.700;2023-12-29T05:31:04;99792.00;;;6.87;74.32
73860;BME280;62197;51.632;13.700;2023-12-29T05:33:33;99778.81;;;6.77;74.54
73860;BME280;62197;51.632;13.700;2023-12-29T05:35:59;99778.38;;;6.72;74.85
73860;BME280;62197;51.632;13.700;2023-12-29T05:38:30;99781.00;;;6.72;75.03
73860;BME280;62197;51.632;13.700;2023-12-29T05:40:56;99769.72;;;6.72;74.80
73860;BME280;62197;51.632;13.700;2023-12-29T05:43:21;99770.19;;;6.66;75.16
73860;BME280;62197;51.632;13.700;2023-12-29T05:45:47;99777.09;;;6.67;75.37
73860;BME280;62197;51.632;13.700;2023-12-29T05:48:12;99782.66;;;6.73;75.22
73860;BME280;62197;51.632;13.700;2023-12-29T05:50:37;99785.00;;;6.76;75.10
73860;BME280;62197;51.632;13.700;2023-12-29T05:53:03;99783.72;;;6.71;75.09
73860;BME280;62197;51.632;13.700;2023-12-29T05:55:29;99779.47;;;6.58;75.94
73860;BME280;62197;51.632;13.700;2023-12-29T05:57:54;99776.63;;;6.61;75.99
73860;BME280;62197;51.632;13.700;2023-12-29T06:00:20;99777.34;;;6.52;76.06
73860;BME280;62197;51.632;13.700;2023-12-29T06:02:46;99753.94;;;6.51;76.65
73860;BME280;62197;51.632;13.700;2023-12-29T06:05:11;99759.75;;;6.54;76.41
73860;BME280;62197;51.632;13.700;2023-12-29T06:07:37;99767.00;;;6.62;76.18
73860;BME280;62197;51.632;13.700;2023-12-29T06:10:03;99777.09;;;6.67;75.95
73860;BME280;62197;51.632;13.700;2023-12-29T06:12:28;99755.81;;;6.71;75.92
73860;BME280;62197;51.632;13.700;2023-12-29T06:14:54;99763.97;;;6.78;75.74
73860;BME280;62197;51.632;13.700;2023-12-29T06:17:19;99767.41;;;6.78;75.45
73860;BME280;62197;51.632;13.700;2023-12-29T06:19:44;99758.75;;;6.78;75.62
73860;BME280;62197;51.632;13.700;2023-12-29T06:22:13;99762.53;;;6.85;75.36
73860;BME280;62197;51.632;13.700;2023-12-29T06:24:42;99762.88;;;6.91;74.53
73860;BME280;62197;51.632;13.700;2023-12-29T06:27:11;99748.75;;;6.83;74.77
73860;BME280;62197;51.632;13.700;2023-12-29T06:29:36;99746.59;;;6.88;74.43
73860;BME280;62197;51.632;13.700;2023-12-29T06:32:02;99749.41;;;7.07;73.59
73860;BME280;62197;51.632;13.700;2023-12-29T06:34:28;99745.63;;;7.00;73.72
73860;BME280;62197;51.632;13.700;2023-12-29T06:36:53;99727.66;;;7.07;73.31
73860;BME280;62197;51.632;13.700;2023-12-29T06:39:19;99735.38;;;7.08;73.05
73860;BME280;62197;51.632;13.700;2023-12-29T06:41:44;99740.81;;;7.16;72.84
73860;BME280;62197;51.632;13.700;2023-12-29T06:44:10;99734.41;;;7.09;73.16
73860;BME280;62197;51.632;13.700;2023-12-29T06:46:38;99730.13;;;7.29;72.47
73860;BME280;62197;51.632;13.700;2023-12-29T06:49:04;99739.63;;;7.30;72.46
73860;BME280;62197;51.632;13.700;2023-12-29T06:51:33;99735.75;;;7.66;70.92
73860;BME280;62197;51.632;13.700;2023-12-29T06:54:04;99728.81;;;7.76;69.98
73860;BME280;62197;51.632;13.700;2023-12-29T06:56:29;99736.91;;;7.73;70.48
73860;BME280;62197;51.632;13.700;2023-12-29T06:58:54;99731.56;;;7.75;70.16
73860;BME280;62197;51.632;13.700;2023-12-29T07:01:20;99726.44;;;7.73;70.45
73860;BME280;62197;51.632;13.700;2023-12-29T07:03:45;99745.88;;;7.80;70.17
73860;BME280;62197;51.632;13.700;2023-12-29T07:06:11;99753.72;;;7.80;70.13
73860;BME280;62197;51.632;13.700;2023-12-29T07:08:36;99750.16;;;7.81;70.11
73860;BME280;62197;51.632;13.700;2023-12-29T07:11:02;99754.22;;;7.95;69.15
73860;BME280;62197;51.632;13.700;2023-12-29T07:13:27;99752.19;;;7.98;69.16
73860;BME280;62197;51.632;13.700;2023-12-29T07:15:53;99744.34;;;7.98;69.00
73860;BME280;62197;51.632;13.700;2023-12-29T07:18:18;99762.00;;;8.06;68.17
73860;BME280;62197;51.632;13.700;2023-12-29T07:20:43;99758.03;;;8.12;69.00
73860;BME280;62197;51.632;13.700;2023-12-29T07:23:09;99755.47;;;8.21;69.58
73860;BME280;62197;51.632;13.700;2023-12-29T07:25:34;99765.94;;;8.21;67.69
73860;BME280;62197;51.632;13.700;2023-12-29T07:28:00;99765.63;;;8.15;68.04
73860;BME280;62197;51.632;13.700;2023-12-29T07:30:25;99771.91;;;8.03;68.95
73860;BME280;62197;51.632;13.700;2023-12-29T07:32:51;99762.91;;;7.95;68.91
73860;BME280;62197;51.632;13.700;2023-12-29T07:35:17;99759.91;;;8.00;68.25
73860;BME280;62197;51.632;13.700;2023-12-29T07:37:43;99761.06;;;7.86;68.96
73860;BME280;62197;51.632;13.700;2023-12-29T07:40:12;99771.09;;;7.81;68.92
73860;BME280;62197;51.632;13.700;2023-12-29T07:42:41;99767.63;;;7.71;69.64
73860;BME280;62197;51.632;13.700;2023-12-29T07:45:08;99770.84;;;7.84;69.25
73860;BME280;62197;51.632;13.700;2023-12-29T07:47:34;99763.91;;;7.74;69.60
73860;BME280;62197;51.632;13.700;2023-12-29T07:49:59;99762.72;;;7.78;69.41
73860;BME280;62197;51.632;13.700;2023-12-29T07:52:25;99765.19;;;7.79;69.29
73860;BME280;62197;51.632;13.700;2023-12-29T07:54:50;99760.63;;;7.81;69.00
73860;BME280;62197;51.632;13.700;2023-12-29T07:57:15;99763.81;;;7.85;68.95
73860;BME280;62197;51.632;13.700;2023-12-29T07:59:41;99768.94;;;7.86;69.22
73860;BME280;62197;51.632;13.700;2023-12-29T08:02:06;99778.81;;;8.04;68.19
73860;BME280;62197;51.632;13.700;2023-12-29T08:04:32;99762.00;;;8.06;68.19
73860;BME280;62197;51.632;13.700;2023-12-29T08:06:57;99760.94;;;8.09;67.85
73860;BME280;62197;51.632;13.700;2023-12-29T08:09:23;99758.56;;;8.06;68.20
73860;BME280;62197;51.632;13.700;2023-12-29T08:11:49;99775.03;;;8.17;67.83
73860;BME280;62197;51.632;13.700;2023-12-29T08:14:14;99777.22;;;8.12;68.15
73860;BME280;62197;51.632;13.700;2023-12-29T08:16:39;99760.66;;;8.12;68.10
73860;BME280;62197;51.632;13.700;2023-12-29T08:19:08;99759.88;;;8.21;67.96
73860;BME280;62197;51.632;13.700;2023-12-29T08:21:33;99773.28;;;8.27;67.59
73860;BME280;62197;51.632;13.700;2023-12-29T08:23:59;99768.13;;;8.16;68.36
73860;BME280;62197;51.632;13.700;2023-12-29T08:26:24;99762.38;;;8.32;67.66
73860;BME280;62197;51.632;13.700;2023-12-29T08:28:50;99768.44;;;8.23;68.24
73860;BME280;62197;51.632;13.700;2023-12-29T08:31:15;99772.41;;;8.48;67.03
73860;BME280;62197;51.632;13.700;2023-12-29T08:33:43;99758.72;;;8.44;67.39
73860;BME280;62197;51.632;13.700;2023-12-29T08:36:09;99748.94;;;8.46;67.57
73860;BME280;62197;51.632;13.700;2023-12-29T08:38:34;99756.28;;;8.52;67.28
73860;BME280;62197;51.632;13.700;2023-12-29T08:41:00;99753.72;;;8.72;66.34
73860;BME280;62197;51.632;13.700;2023-12-29T08:43:25;99761.16;;;8.67;66.61
73860;BME280;62197;51.632;13.700;2023-12-29T08:45:51;99769.31;;;8.73;66.63
73860;BME280;62197;51.632;13.700;2023-12-29T08:48:16;99762.97;;;8.76;66.19
73860;BME280;62197;51.632;13.700;2023-12-29T08:50:42;99768.63;;;8.81;66.72
73860;BME280;62197;51.632;13.700;2023-12-29T08:53:08;99781.03;;;8.88;66.22
73860;BME280;62197;51.632;13.700;2023-12-29T08:55:34;99776.50;;;8.90;66.26
73860;BME280;62197;51.632;13.700;2023-12-29T08:57:59;99783.81;;;8.87;66.34
73860;BME280;62197;51.632;13.700;2023-12-29T09:00:24;99779.97;;;8.81;67.00
73860;BME280;62197;51.632;13.700;2023-12-29T09:02:50;99792.25;;;8.81;66.88
73860;BME280;62197;51.632;13.700;2023-12-29T09:05:15;99772.78;;;8.93;66.33
73860;BME280;62197;51.632;13.700;2023-12-29T09:07:41;99785.91;;;8.83;66.70
73860;BME280;62197;51.632;13.700;2023-12-29T09:10:06;99783.81;;;8.87;66.59
73860;BME280;62197;51.632;13.700;2023-12-29T09:12:38;99779.53;;;8.86;66.88
73860;BME280;62197;51.632;13.700;2023-12-29T09:15:04;99799.13;;;8.91;66.82
73860;BME280;62197;51.632;13.700;2023-12-29T09:17:30;99793.66;;;9.14;66.21
73860;BME280;62197;51.632;13.700;2023-12-29T09:19:55;99803.06;;;9.26;66.25
73860;BME280;62197;51.632;13.700;2023-12-29T09:22:21;99799.59;;;9.45;65.64
73860;BME280;62197;51.632;13.700;2023-12-29T09:24:46;99804.00;;;9.54;64.66
73860;BME280;62197;51.632;13.700;2023-12-29T09:27:11;99814.94;;;9.59;64.50
73860;BME280;62197;51.632;13.700;2023-12-29T09:29:37;99808.84;;;9.58;64.50
73860;BME280;62197;51.632;13.700;2023-12-29T09:32:02;99823.91;;;9.56;65.01
73860;BME280;62197;51.632;13.700;2023-12-29T09:34:28;99808.16;;;9.56;65.15
73860;BME280;62197;51.632;13.700;2023-12-29T09:36:53;99809.81;;;9.67;65.02
73860;BME280;62197;51.632;13.700;2023-12-29T09:39:19;99806.78;;;9.62;65.35
73860;BME280;62197;51.632;13.700;2023-12-29T09:41:46;99816.59;;;9.60;65.73
73860;BME280;62197;51.632;13.700;2023-12-29T09:44:14;99808.56;;;9.61;66.04
73860;BME280;62197;51.632;13.700;2023-12-29T09:46:41;99784.94;;;9.61;65.41
73860;BME280;62197;51.632;13.700;2023-12-29T09:49:08;99813.28;;;9.58;65.88
73860;BME280;62197;51.632;13.700;2023-12-29T09:51:35;99799.19;;;9.49;65.80
73860;BME280;62197;51.632;13.700;2023-12-29T09:54:01;99785.50;;;9.65;66.31
73860;BME280;62197;51.632;13.700;2023-12-29T09:56:28;99774.84;;;9.57;66.04
73860;BME280;62197;51.632;13.700;2023-12-29T09:58:54;99801.25;;;9.65;66.07
73860;BME280;62197;51.632;13.700;2023-12-29T10:01:21;99787.97;;;9.76;66.21
73860;BME280;62197;51.632;13.700;2023-12-29T10:03:47;99793.91;;;9.78;65.98
73860;BME280;62197;51.632;13.700;2023-12-29T10:06:20;99792.25;;;9.77;66.10
73860;BME280;62197;51.632;13.700;2023-12-29T10:08:47;99800.13;;;9.77;65.78
73860;BME280;62197;51.632;13.700;2023-12-29T10:11:15;99799.66;;;9.91;65.85
73860;BME280;62197;51.632;13.700;2023-12-29T10:13:43;99796.66;;;9.86;65.26
73860;BME280;62197;51.632;13.700;2023-12-29T10:16:28;99804.81;;;9.83;65.98
73860;BME280;62197;51.632;13.700;2023-12-29T10:19:18;99809.81;;;9.77;66.50
73860;BME280;62197;51.632;13.700;2023-12-29T10:22:03;99800.97;;;9.78;66.37
73860;BME280;62197;51.632;13.700;2023-12-29T10:24:32;99792.25;;;9.77;66.18
73860;BME280;62197;51.632;13.700;2023-12-29T10:26:58;99797.91;;;9.82;66.08
73860;BME280;62197;51.632;13.700;2023-12-29T10:29:23;99792.06;;;9.88;65.77
73860;BME280;62197;51.632;13.700;2023-12-29T10:31:51;99778.28;;;9.86;65.97
73860;BME280;62197;51.632;13.700;2023-12-29T10:34:20;99796.34;;;9.89;66.34
73860;BME280;62197;51.632;13.700;2023-12-29T10:36:48;99795.09;;;9.93;66.56
73860;BME280;62197;51.632;13.700;2023-12-29T10:39:14;99798.13;;;9.99;65.16
73860;BME280;62197;51.632;13.700;2023-12-29T10:41:40;99781.81;;;9.95;66.02
73860;BME280;62197;51.632;13.700;2023-12-29T10:44:08;99797.00;;;10.11;66.63
73860;BME280;62197;51.632;13.700;2023-12-29T10:46:34;99791.75;;;10.01;66.21
73860;BME280;62197;51.632;13.700;2023-12-29T10:49:10;99788.13;;;10.12;65.95
73860;BME280;62197;51.632;13.700;2023-12-29T10:51:35;99777.88;;;10.18;65.16
73860;BME280;62197;51.632;13.700;2023-12-29T10:54:02;99778.47;;;10.22;65.22
73860;BME280;62197;51.632;13.700;2023-12-29T10:56:28;99779.00;;;10.25;65.50
73860;BME280;62197;51.632;13.700;2023-12-29T10:59:02;99795.44;;;10.18;65.64
73860;BME280;62197;51.632;13.700;2023-12-29T11:01:32;99786.88;;;10.16;65.31
73860;BME280;62197;51.632;13.700;2023-12-29T11:04:06;99780.94;;;10.23;65.27
73860;BME280;62197;51.632;13.700;2023-12-29T11:06:43;99796.44;;;10.26;65.39
73860;BME280;62197;51.632;13.700;2023-12-29T11:09:11;99782.03;;;10.31;64.87
73860;BME280;62197;51.632;13.700;2023-12-29T11:11:37;99791.72;;;10.30;64.99
73860;BME280;62197;51.632;13.700;2023-12-29T11:14:03;99781.66;;;10.43;64.91
73860;BME280;62197;51.632;13.700;2023-12-29T11:16:29;99781.47;;;10.54;64.71
73860;BME280;62197;51.632;13.700;2023-12-29T11:18:56;99777.84;;;10.38;64.16
73860;BME280;62197;51.632;13.700;2023-12-29T11:21:21;99763.13;;;10.45;63.99
73860;BME280;62197;51.632;13.700;2023-12-29T11:23:48;99757.97;;;10.53;64.11
73860;BME280;62197;51.632;13.700;2023-12-29T11:26:13;99746.75;;;10.51;63.75
73860;BME280;62197;51.632;13.700;2023-12-29T11:28:39;99762.72;;;10.67;63.83
73860;BME280;62197;51.632;13.700;2023-12-29T11:31:05;99758.84;;;10.71;63.38
73860;BME280;62197;51.632;13.700;2023-12-29T11:33:37;99751.34;;;10.76;63.21
73860;BME280;62197;51.632;13.700;2023-12-29T11:36:17;99762.25;;;10.81;62.93
73860;BME280;62197;51.632;13.700;2023-12-29T11:39:03;99765.09;;;10.88;62.99
73860;BME280;62197;51.632;13.700;2023-12-29T11:41:56;99776.97;;;10.92;62.58
73860;BME280;62197;51.632;13.700;2023-12-29T11:44:27;99747.38;;;10.90;62.52
73860;BME280;62197;51.632;13.700;2023-12-29T11:46:53;99752.94;;;10.87;62.71
73860;BME280;62197;51.632;13.700;2023-12-29T11:49:19;99760.88;;;10.95;62.60
73860;BME280;62197;51.632;13.700;2023-12-29T11:51:47;99755.63;;;10.95;62.58
73860;BME280;62197;51.632;13.700;2023-12-29T11:54:27;99749.03;;;10.91;62.37
73860;BME280;62197;51.632;13.700;2023-12-29T11:56:53;99742.47;;;11.13;62.50
73860;BME280;62197;51.632;13.700;2023-12-29T11:59:20;99741.50;;;11.14;62.13
73860;BME280;62197;51.632;13.700;2023-12-29T12:01:57;99732.72;;;11.49;60.79
73860;BME280;62197;51.632;13.700;2023-12-29T12:07:56;99725.13;;;11.46;60.23
73860;BME280;62197;51.632;13.700;2023-12-29T12:09:51;99721.72;;;12.05;59.00
73860;BME280;62197;51.632;13.700;2023-12-29T12:12:38;99720.72;;;12.90;56.27
73860;BME280;62197;51.632;13.700;2023-12-29T12:15:04;99703.91;;;13.16;55.07
73860;BME280;62197;51.632;13.700;2023-12-29T12:17:50;99699.50;;;14.43;52.01
73860;BME280;62197;51.632;13.700;2023-12-29T12:20:16;99707.44;;;13.96;52.29
73860;BME280;62197;51.632;13.700;2023-12-29T12:22:43;99717.72;;;13.10;55.38
73860;BME280;62197;51.632;13.700;2023-12-29T12:25:11;99700.25;;;11.66;59.14
73860;BME280;62197;51.632;13.700;2023-12-29T12:27:38;99713.50;;;11.31;60.98
73860;BME280;62197;51.632;13.700;2023-12-29T12:30:04;99701.63;;;11.26;61.07
73860;BME280;62197;51.632;13.700;2023-12-29T12:32:30;99696.22;;;11.10;61.79
73860;BME280;62197;51.632;13.700;2023-12-29T12:34:56;99691.47;;;11.14;61.56
73860;BME280;62197;51.632;13.700;2023-12-29T12:37:23;99694.88;;;11.06;62.10
73860;BME280;62197;51.632;13.700;2023-12-29T12:39:48;99699.38;;;10.96;61.77
73860;BME280;62197;51.632;13.700;2023-12-29T12:42:15;99704.94;;;10.93;62.84
73860;BME280;62197;51.632;13.700;2023-12-29T12:44:42;99706.69;;;10.84;62.47
73860;BME280;62197;51.632;13.700;2023-12-29T12:47:15;99708.50;;;10.84;62.92
73860;BME280;62197;51.632;13.700;2023-12-29T12:49:43;99707.06;;;10.89;63.28
73860;BME280;62197;51.632;13.700;2023-12-29T12:52:09;99701.00;;;10.89;62.52
73860;BME280;62197;51.632;13.700;2023-12-29T12:54:34;99692.03;;;10.82;62.51
73860;BME280;62197;51.632;13.700;2023-12-29T12:57:00;99697.28;;;10.82;62.83
73860;BME280;62197;51.632;13.700;2023-12-29T12:59:27;99694.38;;;10.85;63.10